Kenduskeag, Maine
Current Conditions -  °F | °C
As of 10:53 PM on Tuesday 25 Nov 2014 (Local Time) from KBGR Reporting Station
Overcast Overcast  
Wind Chill: 44°   Ceiling: 25000
Heat Index: 44°   Visibility: 10mi
Dew Point: 24°   Wind: 3mph
Humidity: 45%   Direction: 220°SW
Pressure: 30.01"   Gusts: NA
Location:  44.92°N, 68.93°W
Report Text: KBGR 260353Z 22003KT 10SM OVC250 07/M04 A3001 RMK AO2 SLP162 T00671044
Loading
Personal Weather Stations






























Interactive Weather Map New forecast layout! Learn more

10-Day Weather Forecast

Advertisements
Track Severe Weather on mobile